createdAt,value
2018-08-03T00:01:19.277Z,21.78
2018-08-03T00:03:50.089Z,21.76
2018-08-03T00:06:20.463Z,21.82
2018-08-03T00:08:51.243Z,21.78
2018-08-03T00:11:21.864Z,21.75
2018-08-03T00:13:52.531Z,21.67
2018-08-03T00:16:23.281Z,21.59
2018-08-03T00:18:53.872Z,21.52
2018-08-03T00:21:24.155Z,21.40
2018-08-03T00:23:54.290Z,21.34
2018-08-03T00:26:24.505Z,21.35
2018-08-03T00:28:54.878Z,21.35
2018-08-03T00:31:25.121Z,21.38
2018-08-03T00:33:55.574Z,21.36
2018-08-03T00:36:25.897Z,21.33
2018-08-03T00:38:56.368Z,21.29
2018-08-03T00:41:26.814Z,21.19
2018-08-03T00:44:04.552Z,21.15
2018-08-03T00:46:35.035Z,21.11
2018-08-03T00:49:06.605Z,21.03
2018-08-03T00:51:36.798Z,20.89
2018-08-03T00:54:07.392Z,20.82
2018-08-03T00:56:38.132Z,20.75
2018-08-03T00:59:08.635Z,20.60
2018-08-03T01:01:39.400Z,20.60
2018-08-03T01:04:09.995Z,20.63
2018-08-03T01:06:40.436Z,20.58
2018-08-03T01:09:15.926Z,20.47
2018-08-03T01:11:46.488Z,20.46
2018-08-03T01:14:17.204Z,20.49
2018-08-03T01:17:05.547Z,20.52
2018-08-03T01:19:36.336Z,20.53
2018-08-03T01:22:06.771Z,20.47
2018-08-03T01:24:37.393Z,20.44
2018-08-03T01:27:30.583Z,20.43
2018-08-03T01:30:05.219Z,20.40
2018-08-03T01:32:36.095Z,20.43
2018-08-03T01:35:06.587Z,20.42
2018-08-03T01:37:37.275Z,20.34
2018-08-03T01:40:19.562Z,20.29
2018-08-03T01:42:50.221Z,20.18
2018-08-03T01:45:20.652Z,20.14
2018-08-03T01:48:08.172Z,20.06
2018-08-03T01:50:38.554Z,19.94
2018-08-03T01:53:09.144Z,19.98
2018-08-03T01:55:39.728Z,20.01
2018-08-03T01:58:10.126Z,20.07
2018-08-03T02:00:40.563Z,20.20
2018-08-03T02:03:11.078Z,20.29
2018-08-03T02:05:41.578Z,20.42
2018-08-03T02:08:12.088Z,20.46
2018-08-03T02:10:42.731Z,20.47
2018-08-03T02:13:13.158Z,20.40
2018-08-03T02:15:43.731Z,20.29
2018-08-03T02:18:14.340Z,20.21
2018-08-03T02:20:44.919Z,20.15
2018-08-03T02:23:15.472Z,20.16
2018-08-03T02:25:45.911Z,20.21
2018-08-03T02:28:16.337Z,20.24
2018-08-03T02:30:46.814Z,20.28
2018-08-03T02:33:17.400Z,20.16
2018-08-03T02:35:48.072Z,20.02
2018-08-03T02:38:18.736Z,20.02
2018-08-03T02:40:49.355Z,20.02
2018-08-03T02:43:20.046Z,20.04
2018-08-03T02:45:50.519Z,20.04
2018-08-03T02:51:22.380Z,20.01
2018-08-03T02:53:53.199Z,20.01
2018-08-03T02:56:24.258Z,19.97
2018-08-03T02:58:55.264Z,20.00
2018-08-03T03:01:26.249Z,19.97
2018-08-03T03:03:56.923Z,19.95
2018-08-03T03:06:28.003Z,19.93
2018-08-03T03:08:58.971Z,19.92
2018-08-03T03:11:29.547Z,19.87
2018-08-03T03:14:00.122Z,19.89
2018-08-03T03:16:30.519Z,19.87
2018-08-03T03:19:00.848Z,19.80
2018-08-03T03:21:31.303Z,19.76
2018-08-03T03:24:01.836Z,19.74
2018-08-03T03:26:32.348Z,19.68
2018-08-03T03:29:02.992Z,19.63
2018-08-03T03:31:33.872Z,19.67
2018-08-03T03:34:04.333Z,19.71
2018-08-03T03:36:35.140Z,19.68
2018-08-03T03:39:09.771Z,19.64
2018-08-03T03:41:50.588Z,19.67
2018-08-03T03:44:21.065Z,19.70
2018-08-03T03:46:51.562Z,19.69
2018-08-03T03:49:22.079Z,19.69
2018-08-03T03:51:52.548Z,19.70
2018-08-03T03:54:22.994Z,19.73
2018-08-03T03:56:53.485Z,19.68
2018-08-03T03:59:23.863Z,19.66
2018-08-03T04:01:54.279Z,19.62
2018-08-03T04:04:24.724Z,19.60
2018-08-03T04:06:55.407Z,19.57
2018-08-03T04:09:39.525Z,19.54
2018-08-03T04:12:10.385Z,19.46
2018-08-03T04:14:41.131Z,19.36
2018-08-03T04:17:11.656Z,19.35
2018-08-03T04:19:41.931Z,19.40
2018-08-03T04:22:12.448Z,19.42
2018-08-03T04:24:42.994Z,19.46
2018-08-03T04:27:13.667Z,19.50
2018-08-03T04:29:44.126Z,19.53
2018-08-03T04:32:14.251Z,19.56
2018-08-03T04:34:44.619Z,19.65
2018-08-03T04:37:18.823Z,19.72
2018-08-03T04:39:49.202Z,19.76
2018-08-03T04:42:19.870Z,19.84
2018-08-03T04:44:50.386Z,19.89
2018-08-03T04:47:21.319Z,19.97
2018-08-03T04:49:51.850Z,20.06
2018-08-03T04:52:22.398Z,20.27
2018-08-03T04:54:52.827Z,20.44
2018-08-03T04:57:23.219Z,20.63
2018-08-03T04:59:53.630Z,20.89
2018-08-03T05:02:24.081Z,21.10
2018-08-03T05:04:54.612Z,21.29
2018-08-03T05:07:24.975Z,21.38
2018-08-03T05:09:55.511Z,21.57
2018-08-03T05:12:25.968Z,21.89
2018-08-03T05:14:56.435Z,22.23
2018-08-03T05:17:26.923Z,22.82
2018-08-03T05:19:57.424Z,23.57
2018-08-03T05:22:27.892Z,24.01
2018-08-03T05:24:58.334Z,24.53
2018-08-03T05:27:28.884Z,25.38
2018-08-03T05:29:59.299Z,26.16
2018-08-03T05:32:29.944Z,27.02
2018-08-03T05:35:00.417Z,27.79
2018-08-03T05:37:30.971Z,28.67
2018-08-03T05:40:01.477Z,29.40
2018-08-03T05:42:36.070Z,30.30
2018-08-03T05:45:07.367Z,30.95
2018-08-03T05:47:37.811Z,31.42
2018-08-03T05:50:12.776Z,31.73
2018-08-03T05:52:43.293Z,31.86
2018-08-03T05:55:24.020Z,31.31
2018-08-03T05:57:54.455Z,31.22
2018-08-03T06:00:25.542Z,31.81
2018-08-03T06:02:56.033Z,30.99
2018-08-03T06:05:26.743Z,30.17
2018-08-03T06:07:57.264Z,31.02
2018-08-03T06:10:27.879Z,31.02
2018-08-03T06:15:58.984Z,30.67
2018-08-03T06:18:29.448Z,31.04
2018-08-03T06:21:08.223Z,32.23
2018-08-03T06:23:38.830Z,33.40
2018-08-03T06:26:09.756Z,33.60
2018-08-03T06:28:40.319Z,34.61
2018-08-03T06:31:10.823Z,33.08
2018-08-03T06:33:41.308Z,31.48
2018-08-03T06:36:19.519Z,32.82
2018-08-03T06:38:50.199Z,33.84
2018-08-03T06:41:20.871Z,34.89
2018-08-03T06:43:52.399Z,34.83
2018-08-03T06:46:22.860Z,35.25
2018-08-03T06:48:53.583Z,33.65
2018-08-03T06:51:26.799Z,32.33
2018-08-03T06:53:57.274Z,34.05
2018-08-03T06:56:29.763Z,35.27
2018-08-03T06:59:00.187Z,34.67
2018-08-03T07:01:32.896Z,34.44
2018-08-03T07:04:04.456Z,35.50
2018-08-03T07:06:35.776Z,34.10
2018-08-03T07:09:11.761Z,31.24
2018-08-03T07:11:42.438Z,31.64
2018-08-03T07:14:13.121Z,32.95
2018-08-03T07:16:46.693Z,32.40
2018-08-03T07:19:17.675Z,32.58
2018-08-03T07:21:48.200Z,32.49
2018-08-03T07:24:18.602Z,31.71
2018-08-03T07:26:49.472Z,33.17
2018-08-03T07:29:20.074Z,33.36
2018-08-03T07:31:50.748Z,33.93
2018-08-03T07:34:21.323Z,32.11
2018-08-03T07:36:52.389Z,31.23
2018-08-03T07:39:22.973Z,31.12
2018-08-03T07:41:55.443Z,30.76
2018-08-03T07:44:25.790Z,32.07
2018-08-03T07:46:56.196Z,31.96
2018-08-03T07:49:26.734Z,31.55
2018-08-03T07:51:57.324Z,32.14
2018-08-03T07:54:27.337Z,32.19
2018-08-03T07:56:57.647Z,31.45
2018-08-03T07:59:28.186Z,32.06
2018-08-03T08:01:58.850Z,32.28
2018-08-03T08:04:29.230Z,32.74
2018-08-03T08:06:59.607Z,32.80
2018-08-03T08:09:30.219Z,32.78
2018-08-03T08:12:00.875Z,33.71
2018-08-03T08:14:31.290Z,33.23
2018-08-03T08:17:01.798Z,33.53
2018-08-03T08:19:32.080Z,32.51
2018-08-03T08:22:02.619Z,33.14
2018-08-03T08:24:33.312Z,32.72
2018-08-03T08:27:03.757Z,32.54
2018-08-03T08:29:34.412Z,32.54
2018-08-03T08:32:04.884Z,33.14
2018-08-03T08:34:35.324Z,33.13
2018-08-03T08:37:05.948Z,33.00
2018-08-03T08:39:36.326Z,33.65
2018-08-03T08:42:07.160Z,33.39
2018-08-03T08:44:37.876Z,33.71
2018-08-03T08:47:07.655Z,34.07
2018-08-03T08:49:38.083Z,35.26
2018-08-03T08:52:08.409Z,34.81
2018-08-03T08:54:39.429Z,34.72
2018-08-03T08:57:09.883Z,35.40
2018-08-03T08:59:41.872Z,35.90
2018-08-03T09:02:12.296Z,37.32
2018-08-03T09:10:31.023Z,36.42
2018-08-03T09:13:01.354Z,37.67
2018-08-03T09:15:31.962Z,36.68
2018-08-03T09:18:02.198Z,36.48
2018-08-03T09:20:32.067Z,36.03
2018-08-03T09:23:02.211Z,37.96
2018-08-03T09:25:32.506Z,36.38
2018-08-03T09:28:02.655Z,35.40
2018-08-03T09:30:32.541Z,37.48
2018-08-03T09:33:02.763Z,38.23
2018-08-03T09:35:32.934Z,37.08
2018-08-03T09:38:03.372Z,38.69
2018-08-03T09:40:33.511Z,38.13
2018-08-03T09:43:04.071Z,38.48
2018-08-03T09:45:33.986Z,38.45
2018-08-03T09:48:04.151Z,38.69
2018-08-03T09:50:34.705Z,37.72
2018-08-03T09:53:05.136Z,37.31
2018-08-03T09:55:35.632Z,39.01
2018-08-03T09:58:05.586Z,36.92
2018-08-03T10:00:40.459Z,37.84
2018-08-03T10:03:10.684Z,37.67
2018-08-03T10:05:41.079Z,37.30
2018-08-03T10:08:12.035Z,38.48
2018-08-03T10:10:42.343Z,38.07
2018-08-03T10:13:13.020Z,36.41
2018-08-03T10:15:42.570Z,37.19
2018-08-03T10:18:13.584Z,37.12
2018-08-03T10:20:44.260Z,37.79
2018-08-03T10:23:14.643Z,37.21
2018-08-03T10:25:45.060Z,36.78
2018-08-03T10:28:15.439Z,37.47
2018-08-03T10:30:49.644Z,37.70
2018-08-03T10:33:20.219Z,38.58
2018-08-03T10:35:50.553Z,37.24
2018-08-03T10:38:20.928Z,37.05
2018-08-03T10:40:51.440Z,37.73
2018-08-03T10:43:21.356Z,37.12
2018-08-03T10:45:51.885Z,37.19
2018-08-03T10:48:22.420Z,36.55
2018-08-03T10:51:00.760Z,37.26
2018-08-03T10:53:34.654Z,38.59
2018-08-03T10:56:05.340Z,39.04
2018-08-03T10:58:35.412Z,39.57
2018-08-03T11:01:06.072Z,38.93
2018-08-03T11:03:36.590Z,39.44
2018-08-03T11:06:13.456Z,38.59
2018-08-03T11:08:43.864Z,37.67
2018-08-03T11:11:15.301Z,38.09
2018-08-03T11:13:45.851Z,37.07
2018-08-03T11:16:16.123Z,36.71
2018-08-03T11:18:46.536Z,36.56
2018-08-03T11:21:17.076Z,38.22
2018-08-03T11:23:47.654Z,38.76
2018-08-03T11:26:18.708Z,38.45
2018-08-03T11:28:49.483Z,38.46
2018-08-03T11:31:19.985Z,37.76
2018-08-03T11:33:51.312Z,38.23
2018-08-03T11:36:21.736Z,38.37
2018-08-03T11:38:52.174Z,38.04
2018-08-03T11:41:22.447Z,38.78
2018-08-03T11:43:52.967Z,38.53
2018-08-03T11:46:23.403Z,37.99
2018-08-03T11:48:54.088Z,37.34
2018-08-03T11:51:24.687Z,37.75
2018-08-03T11:53:55.335Z,38.42
2018-08-03T11:56:25.875Z,39.91
2018-08-03T11:58:56.310Z,38.29
2018-08-03T12:01:26.853Z,38.01
2018-08-03T12:03:57.443Z,38.56
2018-08-03T12:06:39.010Z,39.22
2018-08-03T12:09:09.447Z,40.25
2018-08-03T12:11:40.077Z,39.45
2018-08-03T12:14:10.114Z,39.73
2018-08-03T12:16:40.635Z,39.40
2018-08-03T12:19:11.069Z,40.34
2018-08-03T12:21:41.566Z,39.25
2018-08-03T12:24:11.914Z,39.79
2018-08-03T12:26:41.987Z,41.59
2018-08-03T12:29:12.424Z,38.80
2018-08-03T12:31:48.430Z,39.64
2018-08-03T12:34:18.918Z,40.82
2018-08-03T12:36:49.822Z,41.12
2018-08-03T12:39:20.159Z,40.64
2018-08-03T12:41:50.467Z,41.05
2018-08-03T12:44:20.880Z,40.97
2018-08-03T12:46:51.128Z,39.76
2018-08-03T12:49:21.370Z,40.19
2018-08-03T12:51:51.803Z,39.77
2018-08-03T12:54:21.921Z,40.05
2018-08-03T12:56:51.963Z,39.83
2018-08-03T12:59:22.221Z,39.79
2018-08-03T13:01:52.294Z,40.16
2018-08-03T13:04:22.590Z,41.60
2018-08-03T13:06:52.608Z,41.51
2018-08-03T13:09:23.157Z,40.40
2018-08-03T13:11:53.451Z,41.35
2018-08-03T13:14:23.583Z,40.03
2018-08-03T13:16:53.738Z,40.09
2018-08-03T13:19:23.899Z,38.10
2018-08-03T13:21:54.007Z,40.60
2018-08-03T13:24:24.158Z,41.07
2018-08-03T13:26:54.331Z,41.35
2018-08-03T13:29:24.551Z,40.86
2018-08-03T13:31:54.539Z,42.14
2018-08-03T13:34:24.530Z,39.37
2018-08-03T13:36:54.772Z,40.24
2018-08-03T13:39:24.985Z,41.60
2018-08-03T13:41:55.246Z,42.86
2018-08-03T13:44:25.916Z,42.37
2018-08-03T13:46:56.110Z,40.67
2018-08-03T13:49:26.417Z,41.83
2018-08-03T13:51:56.511Z,41.70
2018-08-03T13:54:26.606Z,41.31
2018-08-03T13:56:56.870Z,42.79
2018-08-03T13:59:27.282Z,43.28
2018-08-03T14:02:24.864Z,42.10
2018-08-03T14:04:55.706Z,41.05
2018-08-03T14:07:27.204Z,43.38
2018-08-03T14:09:57.413Z,42.56
2018-08-03T14:12:27.536Z,44.15
2018-08-03T14:14:57.859Z,44.80
2018-08-03T14:17:28.154Z,42.71
2018-08-03T14:19:58.389Z,42.07
2018-08-03T14:22:28.580Z,42.38
2018-08-03T14:24:58.273Z,41.56
2018-08-03T14:27:28.578Z,41.14
2018-08-03T14:30:01.094Z,40.79
2018-08-03T14:32:31.315Z,40.93
2018-08-03T14:35:01.434Z,40.96
2018-08-03T14:37:31.807Z,42.27
2018-08-03T14:40:02.058Z,41.08
2018-08-03T14:42:32.955Z,42.31
2018-08-03T14:45:03.438Z,43.45
2018-08-03T14:47:33.635Z,43.72
2018-08-03T14:50:03.817Z,43.70
2018-08-03T14:52:33.315Z,43.53
2018-08-03T14:55:03.643Z,42.87
2018-08-03T14:57:41.845Z,40.84
2018-08-03T15:00:12.538Z,38.41
2018-08-03T15:02:43.030Z,39.02
2018-08-03T15:05:30.956Z,39.73
2018-08-03T15:08:01.564Z,39.67
2018-08-03T15:10:32.744Z,40.20
2018-08-03T15:13:03.466Z,41.30
2018-08-03T15:15:33.193Z,40.40
2018-08-03T15:18:03.159Z,41.22
2018-08-03T15:20:39.787Z,39.77
2018-08-03T15:23:10.161Z,40.80
2018-08-03T15:25:40.350Z,43.23
2018-08-03T15:28:10.521Z,41.95
2018-08-03T15:30:39.983Z,41.21
2018-08-03T15:33:10.189Z,43.04
2018-08-03T15:35:40.509Z,40.91
2018-08-03T15:38:10.846Z,40.80
2018-08-03T15:40:41.327Z,39.61
2018-08-03T15:43:11.206Z,41.43
2018-08-03T15:45:41.288Z,40.82
2018-08-03T15:48:11.444Z,40.97
2018-08-03T15:50:41.617Z,40.44
2018-08-03T15:53:11.516Z,41.48
2018-08-03T15:55:42.594Z,42.65
2018-08-03T15:58:13.753Z,43.18
2018-08-03T16:00:44.247Z,42.32
2018-08-03T16:03:14.444Z,41.93
2018-08-03T16:05:55.081Z,43.43
2018-08-03T16:08:25.474Z,43.00
2018-08-03T16:10:56.034Z,42.10
2018-08-03T16:13:26.141Z,41.24
2018-08-03T16:15:56.692Z,40.41
2018-08-03T16:18:26.882Z,41.75
2018-08-03T16:20:57.239Z,40.33
2018-08-03T16:23:29.453Z,39.05
2018-08-03T16:26:00.136Z,39.87
2018-08-03T16:28:30.394Z,39.56
2018-08-03T16:31:01.053Z,40.53
2018-08-03T16:33:31.482Z,40.24
2018-08-03T16:36:02.140Z,39.27
2018-08-03T16:38:32.786Z,38.62
2018-08-03T16:41:03.507Z,39.14
2018-08-03T16:43:34.454Z,41.00
2018-08-03T16:46:05.008Z,39.66
2018-08-03T16:48:36.483Z,40.00
2018-08-03T16:51:14.541Z,39.42
2018-08-03T16:53:45.107Z,40.17
2018-08-03T16:56:15.674Z,39.73
2018-08-03T16:58:46.560Z,39.67
2018-08-03T17:01:17.718Z,38.58
2018-08-03T17:03:49.578Z,39.37
2018-08-03T17:06:20.632Z,38.79
2018-08-03T17:08:51.593Z,39.37
2018-08-03T17:11:22.742Z,39.03
2018-08-03T17:13:53.608Z,38.09
2018-08-03T17:16:24.630Z,37.80
2018-08-03T17:18:55.871Z,36.20
2018-08-03T17:21:32.144Z,35.42
2018-08-03T17:24:03.596Z,34.97
2018-08-03T17:26:34.961Z,34.19
2018-08-03T17:29:06.390Z,33.89
2018-08-03T17:31:37.704Z,33.81
2018-08-03T17:34:10.155Z,33.48
2018-08-03T17:36:42.252Z,33.33
2018-08-03T17:39:13.733Z,33.21
2018-08-03T17:41:44.775Z,33.14
2018-08-03T17:44:16.334Z,33.11
2018-08-03T17:46:47.930Z,33.22
2018-08-03T17:49:19.248Z,33.09
2018-08-03T17:51:50.730Z,32.96
2018-08-03T17:54:21.901Z,32.86
2018-08-03T17:56:53.395Z,32.82
2018-08-03T17:59:24.498Z,32.69
2018-08-03T18:01:55.287Z,32.51
2018-08-03T18:04:27.508Z,32.35
2018-08-03T18:06:58.903Z,32.28
2018-08-03T18:09:30.097Z,32.14
2018-08-03T18:12:01.615Z,32.10
2018-08-03T18:14:34.062Z,32.04
2018-08-03T18:17:04.972Z,31.91
2018-08-03T18:19:36.136Z,31.80
2018-08-03T18:22:07.648Z,31.65
2018-08-03T18:24:39.540Z,31.58
2018-08-03T18:27:16.124Z,31.47
2018-08-03T18:30:06.019Z,31.33
2018-08-03T18:32:36.639Z,31.20
2018-08-03T18:35:07.974Z,31.05
2018-08-03T18:37:44.361Z,30.95
2018-08-03T18:40:15.706Z,30.82
2018-08-03T18:42:57.076Z,30.70
2018-08-03T18:45:28.140Z,30.59
2018-08-03T18:47:59.399Z,30.41
2018-08-03T18:50:32.847Z,30.26
2018-08-03T18:53:04.120Z,30.14
2018-08-03T18:55:35.289Z,29.98
2018-08-03T18:58:06.356Z,29.85
2018-08-03T19:00:37.639Z,29.71
2018-08-03T19:03:08.759Z,29.60
2018-08-03T19:05:40.159Z,29.43
2018-08-03T19:08:11.188Z,29.31
2018-08-03T19:10:42.260Z,29.23
2018-08-03T19:13:13.216Z,29.14
2018-08-03T19:15:44.306Z,29.00
2018-08-03T19:18:16.292Z,28.83
2018-08-03T19:20:47.355Z,28.67
2018-08-03T19:23:18.379Z,28.55
2018-08-03T19:25:49.229Z,28.48
2018-08-03T19:28:20.361Z,28.40
2018-08-03T19:30:51.324Z,28.34
2018-08-03T19:33:22.463Z,28.27
2018-08-03T19:35:53.994Z,28.20
2018-08-03T19:38:25.367Z,28.07
2018-08-03T19:40:56.468Z,28.03
2018-08-03T19:43:27.473Z,27.91
2018-08-03T19:45:58.426Z,27.85
2018-08-03T19:48:32.646Z,27.79
2018-08-03T19:51:05.453Z,27.79
2018-08-03T19:53:36.530Z,27.74
2018-08-03T19:56:08.457Z,27.72
2018-08-03T19:58:39.441Z,27.66
2018-08-03T20:01:11.166Z,27.57
2018-08-03T20:03:47.080Z,27.61
2018-08-03T20:06:18.184Z,27.61
2018-08-03T20:08:49.206Z,27.61
2018-08-03T20:11:32.633Z,27.57
2018-08-03T20:14:03.537Z,27.50
2018-08-03T20:16:34.701Z,27.45
2018-08-03T20:19:27.260Z,27.36
2018-08-03T20:22:01.861Z,27.28
2018-08-03T20:24:45.591Z,27.21
2018-08-03T20:27:18.735Z,27.16
2018-08-03T20:29:49.633Z,27.12
2018-08-03T20:32:24.600Z,27.03
2018-08-03T20:34:55.126Z,27.05
2018-08-03T20:37:25.540Z,26.97
2018-08-03T20:39:56.155Z,26.93
2018-08-03T20:42:26.756Z,26.90
2018-08-03T20:44:57.361Z,26.89
2018-08-03T20:47:28.003Z,26.84
2018-08-03T20:50:14.556Z,26.88
2018-08-03T20:52:45.226Z,26.87
2018-08-03T20:55:16.398Z,26.86
2018-08-03T20:57:47.285Z,26.84
2018-08-03T21:00:18.259Z,26.82
2018-08-03T21:02:49.390Z,26.75
2018-08-03T21:05:20.408Z,26.69
2018-08-03T21:07:50.992Z,26.61
2018-08-03T21:10:21.776Z,26.60
2018-08-03T21:12:52.815Z,26.54
2018-08-03T21:15:23.758Z,26.44
2018-08-03T21:17:54.967Z,26.50
2018-08-03T21:20:26.095Z,26.44
2018-08-03T21:22:56.665Z,26.45
2018-08-03T21:25:27.026Z,26.39
2018-08-03T21:27:57.612Z,26.32
2018-08-03T21:30:28.596Z,26.25
2018-08-03T21:33:00.214Z,26.24
2018-08-03T21:35:31.159Z,26.26
2018-08-03T21:38:01.688Z,26.33
2018-08-03T21:40:32.606Z,26.27
2018-08-03T21:43:10.172Z,26.20
2018-08-03T21:45:43.943Z,26.08
2018-08-03T21:48:14.822Z,25.93
2018-08-03T21:50:48.115Z,25.75
2018-08-03T21:53:18.612Z,25.55
2018-08-03T21:55:55.501Z,25.39
2018-08-03T21:58:25.991Z,25.26
2018-08-03T22:00:56.554Z,25.17
2018-08-03T22:03:27.508Z,25.09
2018-08-03T22:05:59.038Z,25.03
2018-08-03T22:08:30.118Z,24.94
2018-08-03T22:11:22.729Z,24.88
2018-08-03T22:13:54.207Z,24.84
2018-08-03T22:16:25.116Z,24.87
2018-08-03T22:18:56.461Z,24.90
2018-08-03T22:21:27.395Z,24.89
2018-08-03T22:23:58.616Z,24.86
2018-08-03T22:26:29.439Z,24.79
2018-08-03T22:29:00.403Z,24.82
2018-08-03T22:31:31.401Z,24.87
2018-08-03T22:34:02.862Z,24.89
2018-08-03T22:36:33.366Z,24.84
2018-08-03T22:39:04.138Z,24.73
2018-08-03T22:41:34.607Z,24.63
2018-08-03T22:44:05.167Z,24.62
2018-08-03T22:46:35.575Z,24.58
2018-08-03T22:49:08.323Z,24.51
2018-08-03T22:51:39.223Z,24.35
2018-08-03T22:54:09.820Z,24.20
2018-08-03T22:56:40.301Z,24.24
2018-08-03T22:59:11.010Z,24.40
2018-08-03T23:01:41.499Z,24.37
2018-08-03T23:04:12.451Z,24.42
2018-08-03T23:06:59.575Z,24.39
2018-08-03T23:09:30.239Z,24.35
2018-08-03T23:12:00.992Z,24.24
2018-08-03T23:14:31.536Z,24.08
2018-08-03T23:17:02.147Z,23.96
2018-08-03T23:19:32.846Z,23.78
2018-08-03T23:22:03.227Z,23.75
2018-08-03T23:27:39.435Z,23.81
2018-08-03T23:30:11.474Z,23.78
2018-08-03T23:32:42.056Z,23.73
2018-08-03T23:35:12.799Z,23.68
2018-08-03T23:37:43.567Z,23.65
2018-08-03T23:40:14.162Z,23.43
2018-08-03T23:43:03.210Z,23.34
2018-08-03T23:45:36.729Z,23.29
2018-08-03T23:48:07.239Z,23.27
2018-08-03T23:50:37.689Z,23.29
2018-08-03T23:53:08.331Z,23.32
2018-08-03T23:55:38.813Z,23.31
2018-08-03T23:58:10.419Z,23.35
